Terminal Aerodrome Forecast
Issued by NWS Cleveland, OH

Home | Current Version | Previous Version | Text Only | Print | Product List | Glossary Off
Versions: 1 2 3 4 5 6 7 8 9 10 11 12 13 14 15 16 17 18 19 20 21 22 23 24 25 26 27 28 29 30 31 32

000
FTUS41 KCLE 221700
TAFCLE
TAF
KCLE 221734Z 2218/2324 32005KT 3SM -SN BR OVC008
     FM221900 30005KT 6SM BR OVC015
     FM222200 VRB03KT P6SM OVC025
     FM230400 24004KT P6SM BKN035=

USA.gov is the U.S. government's official web portal to all federal, state and local government web resources and services.